Crescent Valley, Nevada
Current Conditions -  °F | °C
As of 3:56 AM on Tuesday 21 Oct 2014 (Local Time) from KEKO Reporting Station
Overcast Overcast  
Wind Chill: 11°   Ceiling: 6000
Heat Index: 11°   Visibility: 10mi
Dew Point:   Wind: 6mph
Humidity: 56%   Direction: 190°S
Pressure: 29.96"   Gusts: NA
Location:  40.42°N, 116.58°W
Report Text: KEKO 211056Z AUTO 19005KT 10SM BKN060 OVC075 11/02 A2996 RMK AO2 SLP100 T01060022
Loading
Personal Weather Stations






























Interactive Weather Map
Tropical Storm Tracking
New forecast layout! Learn more

10-Day Weather Forecast

Advertisements
Track Severe Weather on mobile